Aérodrome :
LOGIN :

S'inscrire | Disclaimer

   EN    FR    IT 

 










Légende :    VFR   VFR Marginal   IFR   IFR Intensif   IFR Très Intensif
Visi : 
Plafond : 
>= 8 km
>= 3000ft
5 à 8 km
1000 à 3000 ft
1500m à 5 km
500 à 1000 ft
800 à 1500m
200 à 500 ft
< 800m
< 200 ft
Symboles :   Orages  Brouillard  Fortes neiges  Fortes précipitations  Vent > 20 kt
SIGMETs :   Divers  Orages  Givrage  Turbulence  Onde Orograph.  Cendres Volcan.







- Altitude de l'aérodrome : 289 ft
- Voir les cartes d'approche


LFYR - Romorantin Pruniers

DERNIER METAR :
  • 191300Z AUTO 05012KT 350V080 CAVOK 22/02 Q1024 TEMPO 04015G25KT

METARs EXPIRÉS :
  • 191230Z AUTO 04012KT 340V090 CAVOK 22/02 Q1024 TEMPO 04015G25KT
  • 191200Z AUTO 06014G25KT 010V080 CAVOK 21/03 Q1024 NOSIG
  • 191130Z AUTO 06013KT 010V090 CAVOK 21/03 Q1025 TEMPO 04015G25KT
  • 191100Z AUTO 05015KT 020V080 CAVOK 20/03 Q1025 TEMPO 04015G25KT
  • 191030Z AUTO 05013KT 330V100 CAVOK 20/04 Q1025 TEMPO 04015G25KT

Prévision TAF périmée.
Pas de NOTAMs connus pour ce terrain.



MET'MAP, la Météo Aéronautique d'un coup d'oeil ! - Copyright ORBIFLY Décembre 2007 - Disclaimer

ORBIFLY MET'MAP TEAM :

Programmation & Développement : Alexandra Zaïnal
Conception & Développement : Baudouin d'Aumeries
Co-Programmation & Développement : Marc-Olivier Méhu
Soutien technique & logistique : Manuel Goepfert

Contact : metmap@orbifly.com




SOURCES & CREDITS :

   NOAA